Airfield :
LOGIN :

Register | Disclaimer

   EN    FR    IT 

 










Legend :    VFR   Marginal VFR   IFR   Intensive IFR   Very Intensive IFR
Visi :
Ceiling :
>= 8 km
>= 3000ft
5 to 8 km
1000 to 3000 ft
1500m to 5 km
500 to 1000 ft
800 to 1500m
200 to 500 ft
< 800m
< 200 ft
Symbols :   Thunderstorms  Fog  Heavy snow  Heavy precipitations  Wind > 20 kt
SIGMETs :     Misc.  Thunderstorms  Icing  Turbulence  Mountain Waves  Volcanic Ashes







- Airport Elevation : 56 ft
- IATA code : ILY
- Download approach charts


EGPI - Islay

CURRENT METAR :
  • 221950Z AUTO 12006KT 8000 FEW024/// 15/15 Q1000

EXPIRED METARs :
  • 221920Z AUTO 12007KT 080V140 5000 BR FEW018/// SCT032/// 15/15 Q1001
  • 221850Z AUTO 13006KT 5000 BR FEW002/// SCT018/// 15/15 Q1000
  • 221820Z AUTO 15007KT 100V170 5000 BR SCT002/// 15/15 Q1000
  • 221750Z AUTO 14008KT 090V160 3900 BR BKN002/// 15/15 Q1000 RERA
  • 221720Z AUTO 14008KT 100V160 4500 BR BKN002/// 15/15 Q0999 RERA

Expired Forecast.
No reported NOTAMs for that airfield.



MET'MAP, your aeronautical weather chart ! - Copyright ORBIFLY December 2007 - Disclaimer

ORBIFLY MET'MAP TEAM :

Programming & Development : Alexandra Zaïnal
Concept & Development : Baudouin d'Aumeries
Co-Development & Prog : Marc-Olivier Méhu
Technical & hardware support : Manuel Goepfert

Contact : metmap@orbifly.com




SOURCES & CREDITS :

   NOAA